Time;durP1;ratioP1;P1;durP2;ratioP2;P2;SDS_P1;SDS_P2;PMS_P1;PMS_P2;Temp;Humidity;BMP_temperature;BMP_pressure;BME280_temperature;BME280_humidity;BME280_pressure;Samples;Min_cycle;Max_cycle;Signal;HPM_P1;HPM_P2
2023/06/21 00:01:42;;;;;;;20.35;16.50;;;;;;;22.90;55.83;93386.00;4991621;28;20492;-90
2023/06/21 00:04:07;;;;;;;20.23;16.08;;;;;;;22.89;55.81;93377.00;4990342;28;20034;-89
2023/06/21 00:06:34;;;;;;;21.75;16.15;;;;;;;22.90;55.56;93391.53;5000146;28;20152;-90
2023/06/21 00:09:00;;;;;;;19.88;15.60;;;;;;;22.88;55.91;93389.31;4970358;28;20493;-88
2023/06/21 00:11:26;;;;;;;19.65;14.93;;;;;;;22.89;55.51;93381.78;4978973;28;20476;-89
2023/06/21 00:13:55;;;;;;;20.85;15.45;;;;;;;22.89;55.67;93376.25;5005555;28;20037;-90
2023/06/21 00:16:21;;;;;;;23.50;16.38;;;;;;;22.89;55.57;93362.47;5006588;28;20448;-91
2023/06/21 00:18:46;;;;;;;18.13;16.13;;;;;;;22.88;55.63;93345.19;5001126;28;20053;-88
2023/06/21 00:21:13;;;;;;;19.77;15.65;;;;;;;22.88;55.45;93353.47;4993996;28;20038;-90
2023/06/21 00:23:39;;;;;;;20.45;15.00;;;;;;;22.88;55.39;93325.91;5017621;28;20523;-89
2023/06/21 00:26:05;;;;;;;18.27;14.60;;;;;;;22.90;55.37;93328.84;4991448;28;20034;-88
2023/06/21 00:28:30;;;;;;;21.83;14.38;;;;;;;22.90;55.57;93319.84;5000345;28;20042;-90
2023/06/21 00:30:55;;;;;;;21.50;15.57;;;;;;;22.88;55.40;93314.88;4976336;28;20037;-90
2023/06/21 00:33:21;;;;;;;17.67;14.55;;;;;;;22.88;55.53;93319.66;5022785;28;20042;-90
2023/06/21 00:35:46;;;;;;;22.77;14.57;;;;;;;22.86;55.79;93325.69;4967101;28;20041;-89
2023/06/21 00:38:12;;;;;;;18.15;13.13;;;;;;;22.87;55.52;93331.94;5025712;28;20030;-90
2023/06/21 00:40:38;;;;;;;15.55;13.10;;;;;;;22.86;55.52;93347.00;4997933;28;20198;-90
2023/06/21 00:43:04;;;;;;;16.77;12.23;;;;;;;22.87;56.07;93362.28;4992293;28;20033;-90
2023/06/21 00:45:33;;;;;;;17.80;13.00;;;;;;;22.86;56.19;93377.34;4974926;28;20113;-89
2023/06/21 00:47:58;;;;;;;17.58;13.43;;;;;;;22.85;56.57;93397.91;4987551;28;20042;-89
2023/06/21 00:50:25;;;;;;;17.13;12.90;;;;;;;22.86;56.44;93402.13;4988654;28;20140;-90
2023/06/21 00:52:50;;;;;;;17.77;13.65;;;;;;;22.84;56.51;93402.69;4998399;28;20500;-88
2023/06/21 00:55:19;;;;;;;17.52;13.70;;;;;;;22.83;56.50;93394.94;4975638;28;20049;-88
2023/06/21 00:57:44;;;;;;;16.88;11.90;;;;;;;22.81;56.20;93398.25;4976591;28;20054;-87
2023/06/21 01:00:16;;;;;;;13.48;11.55;;;;;;;22.83;56.01;93386.69;4994077;28;20045;-90
2023/06/21 01:02:43;;;;;;;17.20;12.85;;;;;;;22.84;56.01;93379.88;4971509;28;20513;-87
2023/06/21 01:05:08;;;;;;;17.50;13.32;;;;;;;22.82;55.79;93372.16;4985690;28;20556;-87
2023/06/21 01:08:03;;;;;;;15.75;13.30;;;;;;;22.82;56.18;93376.94;4984777;28;20038;-89
2023/06/21 01:10:52;;;;;;;15.10;12.95;;;;;;;22.81;56.13;93383.72;4995757;28;20076;-90
2023/06/21 01:13:23;;;;;;;17.33;12.95;;;;;;;22.82;56.09;93380.44;4979503;28;20038;-88
2023/06/21 01:15:50;;;;;;;17.35;14.13;;;;;;;22.82;56.07;93374.91;5026980;28;20041;-90
2023/06/21 01:18:16;;;;;;;18.25;12.85;;;;;;;22.82;56.51;93371.41;4971557;28;20040;-88
2023/06/21 01:20:42;;;;;;;15.00;12.73;;;;;;;22.80;56.23;93358.19;5001968;28;20038;-89
2023/06/21 01:23:39;;;;;;;17.45;13.70;;;;;;;22.81;56.14;93358.91;4992245;28;20059;-90
2023/06/21 01:26:11;;;;;;;16.55;13.10;;;;;;;22.79;56.61;93364.97;5011797;28;20094;-89
2023/06/21 01:28:47;;;;;;;16.10;11.13;;;;;;;22.80;56.38;93368.47;5027638;28;20037;-88
2023/06/21 01:31:16;;;;;;;15.57;12.32;;;;;;;22.79;56.68;93361.47;5027239;28;20050;-88
2023/06/21 01:33:41;;;;;;;15.82;12.45;;;;;;;22.79;56.49;93353.19;4993489;28;20092;-88
2023/06/21 01:36:06;;;;;;;15.07;12.15;;;;;;;22.80;56.40;93360.19;4982545;28;20046;-88
2023/06/21 01:38:33;;;;;;;13.73;11.82;;;;;;;22.78;56.21;93365.50;4982687;28;20413;-89
2023/06/21 01:40:58;;;;;;;14.90;12.93;;;;;;;22.78;56.40;93366.25;5021558;28;20048;-90
2023/06/21 01:43:23;;;;;;;14.60;12.25;;;;;;;22.78;56.47;93371.03;4980092;28;20042;-90
2023/06/21 01:45:49;;;;;;;15.38;12.57;;;;;;;22.78;56.29;93376.53;4987463;28;20456;-88
2023/06/21 01:48:14;;;;;;;16.38;12.85;;;;;;;22.77;56.19;93375.78;4989676;28;20287;-88
2023/06/21 01:50:41;;;;;;;14.13;12.18;;;;;;;22.77;56.42;93377.78;4995397;28;20037;-89
2023/06/21 01:53:07;;;;;;;14.32;12.07;;;;;;;22.77;56.41;93367.53;4971365;28;20049;-88
2023/06/21 01:55:32;;;;;;;15.50;10.98;;;;;;;22.76;56.10;93374.28;4996630;28;20042;-88
2023/06/21 01:57:57;;;;;;;14.48;11.52;;;;;;;22.78;56.23;93371.03;4978776;28;20092;-87
2023/06/21 02:00:24;;;;;;;15.75;12.05;;;;;;;22.77;56.27;93364.78;4990157;28;20130;-88
2023/06/21 02:02:57;;;;;;;15.25;11.27;;;;;;;22.76;56.32;93363.25;4967716;28;20046;-89
2023/06/21 02:05:22;;;;;;;12.98;11.40;;;;;;;22.75;56.36;93356.28;4989862;28;20485;-90
2023/06/21 02:07:48;;;;;;;18.55;11.85;;;;;;;22.76;56.40;93359.78;4989195;28;20558;-91
2023/06/21 02:10:19;;;;;;;13.43;11.52;;;;;;;22.77;56.09;93366.75;5014378;28;20049;-89
2023/06/21 02:12:48;;;;;;;15.52;11.80;;;;;;;22.77;56.08;93366.75;4988205;28;20513;-88
2023/06/21 02:15:13;;;;;;;15.40;10.73;;;;;;;22.76;56.34;93360.50;4978684;28;20049;-89
2023/06/21 02:17:39;;;;;;;16.35;11.45;;;;;;;22.76;56.09;93366.00;4982156;28;20039;-88
2023/06/21 02:20:11;;;;;;;15.70;10.18;;;;;;;22.76;56.40;93360.50;4986928;28;20417;-90
2023/06/21 02:22:36;;;;;;;12.93;10.77;;;;;;;22.75;56.48;93366.56;4974713;28;20038;-88
2023/06/21 02:25:02;;;;;;;13.68;11.70;;;;;;;22.75;56.33;93361.78;5016540;28;20459;-89
2023/06/21 02:27:27;;;;;;;16.85;12.40;;;;;;;22.76;56.53;93370.78;5006486;28;20525;-88
2023/06/21 02:29:53;;;;;;;14.35;11.77;;;;;;;22.75;56.48;93372.81;5026348;28;20044;-88
2023/06/21 02:32:18;;;;;;;14.20;10.82;;;;;;;22.75;56.24;93374.81;5005146;28;20077;-90
2023/06/21 02:34:43;;;;;;;13.60;10.88;;;;;;;22.76;56.37;93377.03;4975066;28;20505;-88
2023/06/21 02:37:12;;;;;;;13.43;10.40;;;;;;;22.75;56.28;93383.81;5000188;28;20042;-89
2023/06/21 02:39:37;;;;;;;14.13;11.68;;;;;;;22.74;56.29;93385.09;4998002;28;20043;-89
2023/06/21 02:42:03;;;;;;;13.75;10.82;;;;;;;22.74;56.30;93381.63;5008940;28;20041;-89
2023/06/21 02:44:29;;;;;;;14.60;11.13;;;;;;;22.74;56.40;93381.63;4997913;28;20036;-87
2023/06/21 02:46:56;;;;;;;16.45;11.30;;;;;;;22.74;56.18;93382.34;5014280;28;20037;-90
2023/06/21 02:49:22;;;;;;;17.13;11.65;;;;;;;22.72;56.46;93390.44;4989346;28;20045;-88
2023/06/21 02:51:50;;;;;;;13.32;10.27;;;;;;;22.72;56.45;93384.94;4960408;28;20468;-89
2023/06/21 02:54:16;;;;;;;13.93;10.07;;;;;;;22.72;56.49;93404.22;4979234;28;20042;-87
2023/06/21 02:56:44;;;;;;;14.60;9.65;;;;;;;22.72;56.29;93400.72;5000035;28;20038;-91
2023/06/21 02:59:10;;;;;;;13.52;10.23;;;;;;;22.72;56.21;93414.50;5003084;28;20074;-88
2023/06/21 03:01:35;;;;;;;18.95;10.85;;;;;;;22.70;56.29;93409.53;5016918;28;20033;-90
2023/06/21 03:04:01;;;;;;;15.70;10.80;;;;;;;22.70;56.32;93409.53;5009124;28;20033;-89
2023/06/21 03:06:29;;;;;;;13.05;10.25;;;;;;;22.71;56.13;93413.03;4997907;28;20041;-88
2023/06/21 03:08:57;;;;;;;13.43;9.57;;;;;;;22.72;56.32;93412.50;4993729;28;20049;-87
2023/06/21 03:11:23;;;;;;;12.73;10.45;;;;;;;22.71;56.22;93419.28;5005797;28;20057;-89
2023/06/21 03:13:48;;;;;;;12.80;9.93;;;;;;;22.71;56.28;93415.78;4995064;28;20591;-90
2023/06/21 03:16:14;;;;;;;12.35;9.90;;;;;;;22.71;56.53;93407.53;5000198;28;20061;-88
2023/06/21 03:18:39;;;;;;;13.95;10.10;;;;;;;22.70;56.38;93409.53;4994782;28;20026;-89
2023/06/21 03:21:05;;;;;;;12.57;10.07;;;;;;;22.70;56.39;93408.78;5000129;28;20041;-90
2023/06/21 03:23:30;;;;;;;14.05;10.82;;;;;;;22.69;56.45;93410.81;4999492;28;20037;-89
2023/06/21 03:25:55;;;;;;;13.98;9.88;;;;;;;22.71;56.39;93415.78;4983984;28;20041;-88
2023/06/21 03:28:21;;;;;;;19.85;10.20;;;;;;;22.72;56.35;93414.50;5008912;28;20045;-88
2023/06/21 03:30:46;;;;;;;21.15;8.90;;;;;;;22.76;56.70;93407.34;5012462;28;20037;-86
2023/06/21 03:33:12;;;;;;;14.73;8.77;;;;;;;22.74;56.56;93415.41;4974479;28;20046;-88
2023/06/21 03:35:37;;;;;;;23.73;19.60;;;;;;;22.67;56.87;93415.38;4979552;28;20065;-87
2023/06/21 03:38:02;;;;;;;15.45;11.50;;;;;;;22.69;56.81;93418.34;5020485;28;20048;-87
2023/06/21 03:40:28;;;;;;;19.30;15.15;;;;;;;22.55;56.94;93426.66;4996212;28;20072;-85
2023/06/21 03:42:54;;;;;;;26.08;19.08;;;;;;;22.53;57.23;93422.97;5002581;28;20116;-90
2023/06/21 03:45:19;;;;;;;19.98;14.13;;;;;;;22.47;57.50;93425.88;4991775;28;20049;-88
2023/06/21 03:47:45;;;;;;;24.45;16.02;;;;;;;22.47;57.68;93430.63;4998600;28;20038;-90
2023/06/21 03:50:11;;;;;;;18.67;13.70;;;;;;;22.44;57.95;93426.19;5007190;28;20065;-89
2023/06/21 03:52:37;;;;;;;29.98;17.92;;;;;;;22.41;58.20;93439.03;5002585;28;20273;-87
2023/06/21 03:55:04;;;;;;;21.60;14.95;;;;;;;22.52;58.08;93438.75;4979069;28;20042;-89
2023/06/21 03:57:29;;;;;;;27.42;17.55;;;;;;;22.46;58.13;93427.16;4989602;28;20038;-85
2023/06/21 03:59:55;;;;;;;16.63;9.35;;;;;;;22.40;59.56;93434.78;4988862;28;20100;-89
2023/06/21 04:02:21;;;;;;;30.02;15.68;;;;;;;22.18;60.42;93441.56;5001913;28;20042;-88
2023/06/21 04:04:48;;;;;;;43.03;19.27;;;;;;;22.18;60.62;93443.56;5018320;28;20034;-87
2023/06/21 04:07:13;;;;;;;20.25;11.48;;;;;;;22.26;60.34;93446.41;4995943;28;20034;-85
2023/06/21 04:09:39;;;;;;;38.22;13.07;;;;;;;22.18;60.15;93451.81;4977573;28;20404;-86
2023/06/21 04:12:05;;;;;;;103.47;23.42;;;;;;;22.14;60.28;93448.66;5019464;28;20524;-87
2023/06/21 04:14:30;;;;;;;200.25;43.40;;;;;;;22.07;60.48;93452.81;5007275;28;20108;-86
2023/06/21 04:16:56;;;;;;;43.22;15.40;;;;;;;22.09;60.57;93449.50;4988320;28;20152;-89
2023/06/21 04:19:21;;;;;;;49.38;16.35;;;;;;;22.19;60.86;93445.03;4971383;28;20398;-86
2023/06/21 04:21:46;;;;;;;92.00;42.03;;;;;;;22.09;61.32;93444.00;4994627;28;20048;-86
2023/06/21 04:24:12;;;;;;;41.65;17.48;;;;;;;22.14;61.31;93443.88;5004559;28;20081;-87
2023/06/21 04:26:37;;;;;;;32.22;13.93;;;;;;;22.05;61.49;93444.38;5000910;28;20038;-89
2023/06/21 04:29:03;;;;;;;32.85;14.18;;;;;;;22.08;61.16;93437.06;4976835;28;20085;-89
2023/06/21 04:31:28;;;;;;;44.83;16.63;;;;;;;22.00;61.45;93444.44;5009711;28;20049;-86
2023/06/21 04:33:54;;;;;;;48.05;17.80;;;;;;;22.04;61.42;93439.38;4996034;28;20399;-88
2023/06/21 04:36:20;;;;;;;129.55;71.18;;;;;;;22.00;61.49;93438.94;5021096;28;20033;-87
2023/06/21 04:38:49;;;;;;;43.70;21.02;;;;;;;22.05;61.55;93430.59;4994062;28;20049;-88
2023/06/21 04:41:17;;;;;;;51.10;21.05;;;;;;;22.00;61.61;93438.94;4992582;28;20139;-89
2023/06/21 04:43:43;;;;;;;40.72;16.15;;;;;;;22.00;61.52;93447.97;5006409;28;20408;-87
2023/06/21 04:46:08;;;;;;;39.70;16.92;;;;;;;21.99;61.38;93451.97;4994173;28;20149;-90
2023/06/21 04:48:34;;;;;;;36.80;14.80;;;;;;;22.07;60.85;93454.84;4982098;28;20271;-88
2023/06/21 04:50:59;;;;;;;32.63;12.25;;;;;;;22.02;60.90;93456.44;4988214;28;20041;-89
2023/06/21 04:53:28;;;;;;;33.17;13.23;;;;;;;22.01;61.17;93462.47;4998121;28;20684;-86
2023/06/21 04:55:57;;;;;;;33.55;13.98;;;;;;;21.98;61.13;93466.25;4994232;28;20065;-86
2023/06/21 04:58:23;;;;;;;44.50;16.38;;;;;;;22.05;61.51;93462.88;4972450;28;20107;-89
2023/06/21 05:00:48;;;;;;;113.22;33.83;;;;;;;22.01;61.29;93465.97;4967920;28;20034;-88
2023/06/21 05:03:14;;;;;;;93.63;24.55;;;;;;;22.04;61.43;93469.66;5005288;28;20034;-88
2023/06/21 05:05:39;;;;;;;94.72;27.58;;;;;;;22.02;61.76;93472.22;5002015;28;20061;-89
2023/06/21 05:08:04;;;;;;;68.55;20.05;;;;;;;22.07;61.55;93477.59;4982579;28;20056;-87
2023/06/21 05:10:30;;;;;;;84.65;42.65;;;;;;;22.07;61.89;93483.13;5011148;28;20045;-87
2023/06/21 05:12:55;;;;;;;120.57;59.85;;;;;;;22.06;61.95;93481.63;5009649;28;20089;-87
2023/06/21 05:15:21;;;;;;;50.10;16.85;;;;;;;22.08;62.33;93492.09;5019985;28;20050;-88
2023/06/21 05:17:46;;;;;;;39.80;12.52;;;;;;;22.07;62.31;93493.38;5018260;28;20130;-88
2023/06/21 05:20:12;;;;;;;84.68;32.58;;;;;;;22.07;62.24;93496.88;5010788;28;20045;-86
2023/06/21 05:22:37;;;;;;;86.15;29.08;;;;;;;22.10;62.50;93501.28;4974615;28;20042;-86
2023/06/21 05:25:04;;;;;;;62.58;20.27;;;;;;;22.21;62.75;93506.56;5013411;28;20041;-88
2023/06/21 05:27:29;;;;;;;32.45;12.52;;;;;;;22.20;63.88;93499.59;4994305;28;20049;-87
2023/06/21 05:29:55;;;;;;;45.22;13.30;;;;;;;22.19;64.13;93509.13;5010114;28;20257;-88
2023/06/21 05:32:20;;;;;;;40.40;12.93;;;;;;;22.14;64.73;93517.50;5007046;28;20042;-88
2023/06/21 05:34:46;;;;;;;55.17;14.55;;;;;;;22.23;64.67;93514.31;5027205;28;20500;-86
2023/06/21 05:37:11;;;;;;;44.40;18.15;;;;;;;22.06;65.14;93517.41;5025757;28;20525;-89
2023/06/21 05:39:37;;;;;;;26.42;10.68;;;;;;;22.12;65.44;93511.78;5012810;28;20048;-90
2023/06/21 05:42:02;;;;;;;37.30;15.30;;;;;;;22.08;65.38;93514.88;4997205;28;20556;-90
2023/06/21 05:44:28;;;;;;;47.28;18.95;;;;;;;22.07;66.04;93515.41;5011211;28;20045;-89
2023/06/21 05:46:54;;;;;;;37.60;14.23;;;;;;;22.15;65.94;93514.22;5005665;28;20545;-89
2023/06/21 05:49:19;;;;;;;47.90;15.25;;;;;;;22.17;65.59;93513.69;5018316;28;20034;-88
2023/06/21 05:51:45;;;;;;;26.95;14.13;;;;;;;22.17;66.04;93522.69;5026772;28;20556;-89
2023/06/21 05:54:10;;;;;;;69.30;32.00;;;;;;;22.17;66.11;93521.94;5010840;28;20048;-88
2023/06/21 05:56:38;;;;;;;74.15;37.88;;;;;;;22.17;66.50;93527.44;4982907;28;20443;-89
2023/06/21 05:59:04;;;;;;;23.05;14.52;;;;;;;22.17;66.92;93527.44;4991158;28;20046;-90
2023/06/21 06:01:30;;;;;;;31.70;15.32;;;;;;;22.17;66.56;93522.69;5006809;28;20333;-90
2023/06/21 06:03:55;;;;;;;33.25;12.68;;;;;;;22.21;67.23;93520.34;5025889;28;20052;-89
2023/06/21 06:06:20;;;;;;;21.05;10.80;;;;;;;22.22;66.88;93529.34;5028911;28;20052;-91
2023/06/21 06:08:46;;;;;;;30.20;13.65;;;;;;;22.20;67.30;93532.63;5010943;28;20120;-90
2023/06/21 06:11:11;;;;;;;34.88;13.65;;;;;;;22.29;66.86;93542.47;5022619;28;20045;-89
2023/06/21 06:13:37;;;;;;;38.22;14.18;;;;;;;22.25;67.07;93544.06;5031438;28;20048;-89
2023/06/21 06:16:02;;;;;;;25.42;13.05;;;;;;;22.26;66.52;93538.03;5000895;28;20045;-89
2023/06/21 06:18:28;;;;;;;33.92;15.57;;;;;;;22.28;66.67;93543.00;5005607;28;20041;-89
2023/06/21 06:20:53;;;;;;;31.15;16.05;;;;;;;22.31;66.88;93545.41;5011235;28;20072;-89
2023/06/21 06:23:19;;;;;;;24.67;14.98;;;;;;;22.30;66.97;93532.19;5011733;28;20037;-89
2023/06/21 06:25:46;;;;;;;51.15;34.03;;;;;;;22.31;67.13;93548.16;5028474;28;20052;-89
2023/06/21 06:28:12;;;;;;;34.13;22.33;;;;;;;22.30;66.68;93557.69;5013214;28;20296;-89
2023/06/21 06:30:37;;;;;;;84.43;27.05;;;;;;;22.36;66.83;93552.81;5020676;28;20137;-89
2023/06/21 06:33:03;;;;;;;56.63;26.30;;;;;;;22.34;67.70;93555.38;5009045;28;20037;-89
2023/06/21 06:35:28;;;;;;;51.95;28.17;;;;;;;22.32;67.19;93563.41;4972010;28;20539;-89
2023/06/21 06:37:54;;;;;;;108.97;44.15;;;;;;;22.38;67.82;93558.53;4992549;28;20258;-90
2023/06/21 06:40:19;;;;;;;97.53;40.75;;;;;;;22.35;68.46;93565.09;4989255;28;20416;-89
2023/06/21 06:42:44;;;;;;;84.22;37.65;;;;;;;22.37;68.21;93562.56;4970844;28;20118;-89
2023/06/21 06:45:10;;;;;;;72.45;23.85;;;;;;;22.39;68.37;93560.03;5010329;28;20086;-90
2023/06/21 06:47:35;;;;;;;75.78;33.53;;;;;;;22.38;68.19;93555.78;4991299;28;20103;-91
2023/06/21 06:50:04;;;;;;;70.90;24.40;;;;;;;22.46;68.40;93561.38;4972499;28;20045;-90
2023/06/21 06:52:33;;;;;;;81.72;29.92;;;;;;;22.49;68.05;93560.31;4994058;28;20128;-89
2023/06/21 06:55:07;;;;;;;89.20;29.88;;;;;;;22.48;67.64;93556.81;4997689;28;20038;-90
2023/06/21 06:57:36;;;;;;;121.65;33.85;;;;;;;22.50;67.59;93559.78;4989729;28;20080;-90
2023/06/21 07:00:12;;;;;;;202.90;49.95;;;;;;;22.65;67.64;93564.72;4986211;28;20069;-90
2023/06/21 07:02:38;;;;;;;158.52;40.63;;;;;;;22.58;67.26;93562.63;4984818;28;20057;-91
2023/06/21 07:05:05;;;;;;;143.07;52.70;;;;;;;22.65;66.89;93563.97;4997036;28;20052;-92
2023/06/21 07:07:34;;;;;;;160.73;72.53;;;;;;;22.69;66.78;93578.16;4965058;28;20046;-91
2023/06/21 07:09:59;;;;;;;169.60;76.82;;;;;;;22.78;66.51;93570.19;4973599;28;20034;-91
2023/06/21 07:12:25;;;;;;;186.30;81.15;;;;;;;22.77;66.34;93568.72;4996928;28;20096;-90
2023/06/21 07:14:52;;;;;;;179.98;77.22;;;;;;;22.84;66.10;93581.09;4983114;28;20041;-91
2023/06/21 07:17:21;;;;;;;178.90;80.85;;;;;;;22.85;65.60;93575.06;4984450;28;20061;-91
2023/06/21 07:19:46;;;;;;;187.30;88.80;;;;;;;22.86;65.56;93571.03;4985651;28;20114;-91
2023/06/21 07:22:12;;;;;;;207.88;90.90;;;;;;;22.94;65.43;93573.13;5000739;28;20513;-91
2023/06/21 07:24:37;;;;;;;168.68;86.22;;;;;;;22.91;65.52;93577.69;4993779;28;20049;-90
2023/06/21 07:27:03;;;;;;;174.32;79.72;;;;;;;22.92;65.40;93581.19;5008097;28;20131;-90
2023/06/21 07:29:28;;;;;;;167.30;82.20;;;;;;;23.01;65.07;93586.22;4992054;28;20120;-90
2023/06/21 07:31:54;;;;;;;178.68;82.00;;;;;;;22.99;65.04;93588.78;5006285;28;20417;-90
2023/06/21 07:34:20;;;;;;;177.82;79.78;;;;;;;22.95;64.77;93593.91;4990558;28;20056;-90
2023/06/21 07:36:48;;;;;;;146.57;75.38;;;;;;;22.98;65.01;93593.56;5023406;28;20436;-90
2023/06/21 07:39:18;;;;;;;152.30;76.75;;;;;;;22.99;64.97;93591.53;5001118;28;20046;-91
2023/06/21 07:41:56;;;;;;;144.85;72.00;;;;;;;23.03;64.66;93595.44;4972148;28;20626;-90
2023/06/21 07:44:22;;;;;;;140.68;69.55;;;;;;;23.01;64.55;93598.00;4961035;28;20049;-90
2023/06/21 07:46:56;;;;;;;145.57;73.25;;;;;;;23.06;64.39;93596.38;5023035;28;20405;-91
2023/06/21 07:49:25;;;;;;;175.30;78.90;;;;;;;23.06;64.39;93594.38;4993412;28;20044;-90
2023/06/21 07:51:53;;;;;;;161.00;75.88;;;;;;;23.09;64.20;93598.81;4987140;28;20555;-91
2023/06/21 07:54:24;;;;;;;191.85;91.43;;;;;;;23.17;64.21;93598.88;4982817;28;20049;-91
2023/06/21 07:56:49;;;;;;;200.15;104.97;;;;;;;23.11;63.91;93603.81;4966436;28;20043;-90
2023/06/21 07:59:15;;;;;;;192.38;96.72;;;;;;;23.12;64.18;93602.53;4973685;28;20046;-91
2023/06/21 08:01:41;;;;;;;181.13;85.90;;;;;;;23.19;63.62;93602.56;4970292;28;20560;-89
2023/06/21 08:04:06;;;;;;;165.13;84.85;;;;;;;23.19;63.50;93607.34;4961426;28;20045;-92
2023/06/21 08:06:35;;;;;;;143.00;78.88;;;;;;;23.14;63.57;93611.75;4958849;28;20066;-91
2023/06/21 08:09:01;;;;;;;178.75;84.07;;;;;;;23.15;63.57;93618.00;5004702;28;20081;-91
2023/06/21 08:11:27;;;;;;;171.85;85.40;;;;;;;23.17;63.60;93610.66;4986931;28;20509;-91
2023/06/21 08:13:52;;;;;;;193.10;86.63;;;;;;;23.16;63.47;93611.22;4985108;28;20056;-91
2023/06/21 08:16:18;;;;;;;195.52;85.60;;;;;;;23.14;63.66;93603.47;4982257;28;20049;-89
2023/06/21 08:18:43;;;;;;;199.48;87.53;;;;;;;23.16;63.32;93609.19;4963791;28;20060;-90
2023/06/21 08:21:09;;;;;;;184.70;85.32;;;;;;;23.17;63.33;93601.63;4966389;28;20042;-89
2023/06/21 08:23:34;;;;;;;199.70;98.10;;;;;;;23.21;63.16;93604.78;4940674;28;20524;-93
2023/06/21 08:26:00;;;;;;;194.68;95.22;;;;;;;23.22;62.95;93611.78;4954797;28;20034;-90
2023/06/21 08:28:27;;;;;;;190.20;90.22;;;;;;;23.21;62.88;93605.53;4980626;28;20038;-91
2023/06/21 08:30:52;;;;;;;243.00;97.45;;;;;;;23.28;62.75;93606.16;4971459;28;20144;-90
2023/06/21 08:33:18;;;;;;;213.20;97.22;;;;;;;23.26;62.84;93612.22;4966525;28;20049;-90
2023/06/21 08:35:43;;;;;;;229.55;95.70;;;;;;;23.28;62.71;93606.16;4993046;28;20042;-92
2023/06/21 08:38:09;;;;;;;207.77;95.10;;;;;;;23.25;62.71;93599.69;4993230;28;20042;-94
2023/06/21 08:40:38;;;;;;;211.45;100.35;;;;;;;23.26;62.70;93601.19;4983128;28;20037;-92
2023/06/21 08:43:03;;;;;;;200.73;91.35;;;;;;;23.25;62.54;93589.41;4994160;28;20088;-89
2023/06/21 08:45:29;;;;;;;244.90;114.72;;;;;;;23.29;62.49;93591.09;4999046;28;20056;-93
2023/06/21 08:47:58;;;;;;;244.00;111.13;;;;;;;23.28;62.87;93597.88;5000628;28;20092;-93
2023/06/21 08:50:24;;;;;;;234.65;106.72;;;;;;;23.29;62.56;93599.34;4991701;28;20061;-89
2023/06/21 08:52:52;;;;;;;231.00;108.93;;;;;;;23.35;62.12;93591.69;4993879;28;20123;-89
2023/06/21 08:55:18;;;;;;;229.40;108.28;;;;;;;23.34;62.04;93595.72;4976151;28;20041;-90
2023/06/21 08:57:57;;;;;;;259.15;117.70;;;;;;;23.37;62.08;93586.38;4990032;28;20038;-90
2023/06/21 09:00:28;;;;;;;251.43;112.95;;;;;;;23.31;62.16;93583.00;5004390;28;20045;-89
2023/06/21 09:03:12;;;;;;;263.77;129.95;;;;;;;23.32;62.30;93584.50;5005687;28;20050;-90
2023/06/21 09:05:52;;;;;;;281.98;127.97;;;;;;;23.32;62.11;93576.97;4964582;28;20066;-91
2023/06/21 09:08:17;;;;;;;282.58;125.70;;;;;;;23.32;62.13;93585.22;5008159;28;20048;-89
2023/06/21 09:10:48;;;;;;;294.17;123.95;;;;;;;23.33;62.04;93581.19;5012960;28;20044;-89
2023/06/21 09:13:14;;;;;;;283.45;123.78;;;;;;;23.35;61.98;93584.16;4967079;28;20556;-90
2023/06/21 09:15:40;;;;;;;333.10;130.27;;;;;;;23.34;62.03;93582.69;5009821;28;20045;-87
2023/06/21 09:18:06;;;;;;;351.08;128.73;;;;;;;23.38;61.86;93574.81;5010045;28;20042;-90
2023/06/21 09:20:31;;;;;;;330.33;123.97;;;;;;;23.35;62.11;93570.38;5008567;28;20786;-90
2023/06/21 09:22:57;;;;;;;297.55;119.85;;;;;;;23.36;61.99;93571.84;5028501;28;20053;-92
2023/06/21 09:25:23;;;;;;;281.08;120.47;;;;;;;23.38;61.85;93582.34;4995694;28;20041;-91
2023/06/21 09:27:48;;;;;;;314.33;121.80;;;;;;;23.35;62.04;93583.41;5007389;28;20051;-91
2023/06/21 09:30:14;;;;;;;262.30;112.82;;;;;;;23.45;61.61;93582.38;4994265;28;20124;-90
2023/06/21 09:32:40;;;;;;;213.40;105.93;;;;;;;23.42;61.56;93588.97;4982579;28;20042;-91
2023/06/21 09:35:06;;;;;;;215.38;105.85;;;;;;;23.41;61.65;93586.75;4961760;28;20048;-91
2023/06/21 09:37:36;;;;;;;192.30;98.57;;;;;;;23.36;61.39;93584.91;4991665;28;20100;-90
2023/06/21 09:40:03;;;;;;;220.02;105.43;;;;;;;23.37;61.49;93575.34;4978496;28;20071;-90
2023/06/21 09:42:28;;;;;;;267.70;123.40;;;;;;;23.43;61.45;93573.91;5005761;28;20460;-91
2023/06/21 09:44:54;;;;;;;240.18;120.38;;;;;;;23.42;61.61;93586.22;4983363;28;20116;-90
2023/06/21 09:47:23;;;;;;;225.15;113.53;;;;;;;23.43;61.52;93581.44;4995876;28;20030;-92
2023/06/21 09:49:49;;;;;;;230.05;115.70;;;;;;;23.43;61.25;93578.69;5010473;28;20147;-88
2023/06/21 09:52:20;;;;;;;274.70;136.90;;;;;;;23.44;61.33;93583.66;4980967;28;20042;-93
2023/06/21 09:54:45;;;;;;;;;;;;;;;23.43;61.32;93582.19;4987292;28;20064;-91
2023/06/21 09:57:11;;;;;;;269.70;136.25;;;;;;;23.44;61.14;93582.94;4986537;28;19918;-90
2023/06/21 09:59:37;;;;;;;269.45;134.43;;;;;;;23.41;61.52;93584.75;5002264;28;20520;-91
2023/06/21 10:02:03;;;;;;;269.38;127.43;;;;;;;23.41;61.19;93581.97;5007543;28;20042;-89
2023/06/21 10:04:29;;;;;;;232.90;113.88;;;;;;;23.39;60.96;93592.81;4999634;28;20031;-93
2023/06/21 10:06:54;;;;;;;214.75;108.07;;;;;;;23.43;60.93;93584.19;4992694;28;20057;-92
2023/06/21 10:09:20;;;;;;;198.93;105.55;;;;;;;23.44;61.04;93583.66;4986348;28;20515;-92
2023/06/21 10:11:45;;;;;;;201.82;108.22;;;;;;;23.45;60.97;93589.94;5005538;28;20045;-89
2023/06/21 10:14:22;;;;;;;194.02;102.78;;;;;;;23.40;61.14;93590.78;4971428;28;20052;-91
2023/06/21 10:16:51;;;;;;;188.93;102.45;;;;;;;23.41;61.00;93590.25;4993930;28;20029;-92
2023/06/21 10:19:20;;;;;;;180.52;98.60;;;;;;;23.46;60.75;93589.38;4984002;28;20386;-91
2023/06/21 10:21:47;;;;;;;179.80;97.88;;;;;;;23.40;60.78;93597.06;4981146;28;20138;-92
2023/06/21 10:24:14;;;;;;;181.20;99.18;;;;;;;23.39;61.29;93603.09;4986195;28;20185;-92
2023/06/21 10:26:40;;;;;;;151.02;86.90;;;;;;;23.40;60.90;93602.56;4977829;28;20129;-90
2023/06/21 10:29:06;;;;;;;155.07;93.15;;;;;;;23.44;60.76;93602.25;4992170;28;20125;-91
2023/06/21 10:31:31;;;;;;;157.95;89.43;;;;;;;23.41;60.93;93606.81;4982667;28;20535;-92
2023/06/21 10:33:57;;;;;;;156.25;85.97;;;;;;;23.47;60.83;93607.41;4990638;28;20050;-92
2023/06/21 10:36:26;;;;;;;157.75;84.65;;;;;;;23.46;60.78;93622.50;4977753;28;20059;-91
2023/06/21 10:38:53;;;;;;;152.15;82.32;;;;;;;23.51;60.65;93624.38;4980174;28;20118;-90
2023/06/21 10:41:20;;;;;;;147.88;79.68;;;;;;;23.45;60.77;93625.78;5007183;28;20048;-92
2023/06/21 10:43:45;;;;;;;141.27;81.47;;;;;;;23.48;60.73;93622.69;4991447;28;20412;-91
2023/06/21 10:46:11;;;;;;;116.15;67.93;;;;;;;23.55;60.39;93621.31;4989676;28;20042;-92
2023/06/21 10:48:37;;;;;;;111.03;67.72;;;;;;;23.57;60.46;93618.75;4996233;28;20046;-91
2023/06/21 10:51:03;;;;;;;112.18;68.18;;;;;;;23.50;60.47;93613.88;4989322;28;20441;-88
2023/06/21 10:53:32;;;;;;;103.85;65.05;;;;;;;23.56;60.44;93612.50;4983827;28;20077;-92
2023/06/21 10:55:59;;;;;;;114.85;68.45;;;;;;;23.52;60.82;93622.41;4990388;28;20038;-90
2023/06/21 10:58:24;;;;;;;147.98;76.75;;;;;;;23.58;60.72;93617.47;5022954;28;20457;-93
2023/06/21 11:00:50;;;;;;;249.57;100.45;;;;;;;23.53;60.79;93616.34;4974497;28;20042;-92
2023/06/21 11:03:16;;;;;;;169.70;79.25;;;;;;;23.60;60.90;93614.91;4976280;28;20045;-89
2023/06/21 11:05:42;;;;;;;148.35;74.47;;;;;;;23.61;60.62;93612.88;5000761;28;20030;-90
2023/06/21 11:08:09;;;;;;;142.02;71.30;;;;;;;23.64;60.84;93628.38;4994410;28;20050;-89
2023/06/21 11:10:46;;;;;;;196.40;80.38;;;;;;;23.55;60.90;93627.56;4982854;28;20042;-90
2023/06/21 11:13:12;;;;;;;186.70;80.20;;;;;;;23.60;60.76;93630.75;5025883;28;20045;-94